Time;durP1;ratioP1;P1;durP2;ratioP2;P2;SDS_P1;SDS_P2;PMS_P1;PMS_P2;Temp;Humidity;BMP_temperature;BMP_pressure;BME280_temperature;BME280_humidity;BME280_pressure;Samples;Min_cycle;Max_cycle;Signal;HPM_P1;HPM_P2
2023/06/09 00:02:07;;;;;;;13.33;10.13;;;18.70;1.00;;;;;;5055717;28;20213;-83
2023/06/09 00:04:35;;;;;;;15.43;11.13;;;18.70;1.00;;;;;;5055600;28;20179;-84
2023/06/09 00:07:03;;;;;;;12.47;11.00;;;18.60;99.90;;;;;;5054205;28;20442;-84
2023/06/09 00:09:32;;;;;;;15.60;10.77;;;18.50;99.90;;;;;;5055255;28;20441;-83
2023/06/09 00:11:57;;;;;;;11.93;10.70;;;18.50;99.90;;;;;;5067642;28;20445;-84
2023/06/09 00:14:23;;;;;;;11.23;10.03;;;18.50;99.90;;;;;;5055171;28;20495;-83
2023/06/09 00:16:49;;;;;;;17.00;10.70;;;18.50;99.90;;;;;;5054613;28;20267;-81
2023/06/09 00:19:16;;;;;;;11.93;10.20;;;18.40;1.00;;;;;;5046245;28;20467;-83
2023/06/09 00:21:44;;;;;;;12.10;10.90;;;18.40;1.00;;;;;;5053957;28;20215;-84
2023/06/09 00:24:10;;;;;;;15.07;11.20;;;18.40;1.00;;;;;;5049156;28;20464;-84
2023/06/09 00:26:35;;;;;;;12.37;11.00;;;18.30;1.00;;;;;;5044567;28;20567;-83
2023/06/09 00:29:01;;;;;;;13.40;10.80;;;18.30;99.90;;;;;;5049774;28;20206;-84
2023/06/09 00:31:27;;;;;;;12.23;10.90;;;18.30;1.00;;;;;;5057940;28;20195;-84
2023/06/09 00:33:52;;;;;;;11.80;10.57;;;18.30;1.00;;;;;;5070235;28;20457;-84
2023/06/09 00:36:18;;;;;;;19.03;10.97;;;18.30;20.60;;;;;;5049799;28;20687;-82
2023/06/09 00:38:43;;;;;;;14.63;10.77;;;18.30;99.90;;;;;;5072777;28;20219;-84
2023/06/09 00:41:09;;;;;;;15.13;11.47;;;18.30;99.90;;;;;;5044472;28;20575;-83
2023/06/09 00:43:34;;;;;;;20.53;10.93;;;18.20;99.90;;;;;;5047554;28;20207;-84
2023/06/09 00:46:03;;;;;;;15.87;12.43;;;18.20;33.60;;;;;;5047007;28;20191;-82
2023/06/09 00:48:29;;;;;;;20.80;10.93;;;18.20;1.00;;;;;;5056245;28;22110;-84
2023/06/09 00:50:55;;;;;;;16.90;11.67;;;18.10;99.90;;;;;;5056026;28;20440;-83
2023/06/09 00:53:23;;;;;;;17.77;11.40;;;18.10;99.90;;;;;;5055192;28;20186;-82
2023/06/09 00:55:49;;;;;;;16.27;10.60;;;18.10;99.90;;;;;;5053439;28;20497;-83
2023/06/09 00:58:14;;;;;;;20.17;10.10;;;18.00;99.90;;;;;;5069596;28;20546;-84
2023/06/09 01:00:40;;;;;;;18.07;10.50;;;18.00;99.90;;;;;;5055904;28;21007;-84
2023/06/09 01:03:09;;;;;;;23.53;10.00;;;18.00;1.00;;;;;;5053996;28;20178;-83
2023/06/09 01:05:36;;;;;;;19.20;11.30;;;18.00;1.00;;;;;;5053967;28;20301;-83
2023/06/09 01:08:20;;;;;;;17.27;10.83;;;17.90;99.90;;;;;;5053021;28;20456;-84
2023/06/09 01:11:12;;;;;;;21.53;12.07;;;17.80;1.00;;;;;;5055151;28;20483;-84
2023/06/09 01:14:01;;;;;;;27.63;11.90;;;17.80;32.80;;;;;;5049944;28;20461;-82
2023/06/09 01:16:41;;;;;;;18.73;11.60;;;17.80;99.90;;;;;;5052331;28;20446;-83
2023/06/09 01:19:15;;;;;;;20.27;11.07;;;17.80;99.90;;;;;;5054944;28;20471;-83
2023/06/09 01:21:48;;;;;;;24.23;11.47;;;17.80;99.90;;;;;;5067771;28;20467;-82
2023/06/09 01:24:33;;;;;;;24.37;11.20;;;17.80;99.90;;;;;;5051992;28;20439;-82
2023/06/09 01:27:01;;;;;;;19.23;12.50;;;17.80;99.90;;;;;;5050499;28;20441;-81
2023/06/09 01:29:28;;;;;;;23.47;12.27;;;17.80;99.90;;;;;;5048821;28;20432;-82
2023/06/09 01:31:54;;;;;;;27.77;12.77;;;17.80;99.90;;;;;;5055685;28;20824;-82
2023/06/09 01:34:20;;;;;;;19.77;12.40;;;17.70;99.90;;;;;;5064656;28;20448;-82
2023/06/09 01:36:47;;;;;;;19.73;13.23;;;17.70;99.90;;;;;;5052895;28;20459;-83
2023/06/09 01:39:13;;;;;;;18.80;11.80;;;17.60;99.90;;;;;;5054426;28;20480;-83
2023/06/09 01:41:40;;;;;;;26.43;13.00;;;17.70;99.90;;;;;;5054342;28;20456;-80
2023/06/09 01:44:05;;;;;;;20.63;13.17;;;17.60;1.00;;;;;;5049818;28;20450;-81
2023/06/09 01:46:31;;;;;;;23.23;12.87;;;17.60;1.00;;;;;;5050861;28;20436;-83
2023/06/09 01:49:14;;;;;;;22.87;11.93;;;17.60;1.00;;;;;;5051763;28;20225;-83
2023/06/09 01:51:51;;;;;;;20.73;13.53;;;17.60;1.00;;;;;;5053354;28;20185;-82
2023/06/09 01:54:23;;;;;;;16.60;12.70;;;17.50;99.90;;;;;;5052740;28;20444;-83
2023/06/09 01:57:20;;;;;;;20.40;13.73;;;17.30;99.90;;;;;;5054159;28;20458;-82
2023/06/09 01:59:55;;;;;;;20.80;12.90;;;17.20;1.00;;;;;;5063254;28;20463;-81
2023/06/09 02:02:24;;;;;;;21.57;12.93;;;17.10;36.30;;;;;;5071677;28;21257;-81
2023/06/09 02:04:52;;;;;;;18.80;14.03;;;17.10;99.90;;;;;;5052836;28;20432;-83
2023/06/09 02:07:19;;;;;;;17.40;13.17;;;17.10;99.90;;;;;;5056789;28;22284;-84
2023/06/09 02:09:45;;;;;;;20.13;14.33;;;17.10;99.90;;;;;;5053668;28;20470;-82
2023/06/09 02:12:11;;;;;;;22.17;13.97;;;17.10;99.90;;;;;;5051300;28;20448;-81
2023/06/09 02:14:39;;;;;;;17.83;13.37;;;17.10;99.90;;;;;;5048991;28;20451;-82
2023/06/09 02:17:05;;;;;;;18.90;15.00;;;17.10;99.90;;;;;;5046251;28;20578;-82
2023/06/09 02:19:35;;;;;;;17.60;13.00;;;17.10;99.90;;;;;;5050888;28;20456;-83
2023/06/09 02:22:01;;;;;;;27.80;15.17;;;17.10;99.90;;;;;;5049329;28;20992;-81
2023/06/09 02:24:28;;;;;;;17.70;14.23;;;17.00;99.90;;;;;;5047231;28;20525;-83
2023/06/09 02:26:56;;;;;;;15.50;13.40;;;17.00;99.90;;;;;;5068439;28;20178;-83
2023/06/09 02:29:23;;;;;;;16.27;13.50;;;17.00;99.90;;;;;;5066206;28;20442;-83
2023/06/09 02:31:49;;;;;;;17.70;15.20;;;17.00;99.90;;;;;;5055218;28;20933;-82
2023/06/09 02:34:15;;;;;;;16.87;14.50;;;16.90;99.90;;;;;;5048357;28;20452;-82
2023/06/09 02:36:42;;;;;;;16.40;14.70;;;16.90;99.90;;;;;;5041392;28;20666;-82
2023/06/09 02:39:08;;;;;;;17.90;16.03;;;16.90;99.90;;;;;;5066926;28;20470;-82
2023/06/09 02:41:34;;;;;;;22.27;15.20;;;16.80;99.90;;;;;;5041728;28;20472;-82
2023/06/09 02:44:00;;;;;;;21.77;15.83;;;16.80;1.00;;;;;;5042425;28;20443;-82
2023/06/09 02:46:25;;;;;;;20.00;15.50;;;16.70;1.00;;;;;;5051444;28;20440;-83
2023/06/09 02:48:51;;;;;;;25.37;15.40;;;16.70;99.90;;;;;;5052829;28;20216;-83
2023/06/09 02:51:16;;;;;;;29.00;16.50;;;16.70;99.90;;;;;;5052963;28;20686;-83
2023/06/09 02:53:42;;;;;;;24.17;15.30;;;16.60;99.90;;;;;;5051746;28;20186;-83
2023/06/09 02:56:10;;;;;;;29.07;18.20;;;16.60;99.90;;;;;;5050987;28;20189;-81
2023/06/09 02:58:35;;;;;;;21.27;15.93;;;16.60;1.00;;;;;;5047166;28;20198;-84
2023/06/09 03:01:01;;;;;;;19.93;14.87;;;16.60;1.00;;;;;;5053100;28;20463;-83
2023/06/09 03:03:28;;;;;;;28.17;15.73;;;16.60;1.00;;;;;;5049509;28;20267;-82
2023/06/09 03:05:54;;;;;;;19.40;13.53;;;16.70;1.00;;;;;;5052267;28;20424;-83
2023/06/09 03:08:20;;;;;;;26.80;16.13;;;16.70;1.00;;;;;;5068569;28;20879;-83
2023/06/09 03:10:45;;;;;;;24.53;15.60;;;16.70;1.00;;;;;;5053426;28;20180;-83
2023/06/09 03:13:11;;;;;;;28.77;16.30;;;16.80;1.00;;;;;;5067976;28;20189;-82
2023/06/09 03:15:36;;;;;;;24.40;18.10;;;16.80;1.00;;;;;;5048355;28;20197;-82
2023/06/09 03:18:02;;;;;;;23.93;16.03;;;16.70;1.00;;;;;;5067579;28;20222;-83
2023/06/09 03:20:27;;;;;;;22.00;17.40;;;16.70;1.00;;;;;;5049550;28;20208;-82
2023/06/09 03:22:54;;;;;;;22.90;17.07;;;16.70;1.00;;;;;;5051622;28;20177;-82
2023/06/09 03:25:19;;;;;;;23.80;19.20;;;16.70;1.00;;;;;;5049264;28;20579;-83
2023/06/09 03:27:45;;;;;;;28.30;18.50;;;16.70;1.00;;;;;;5050489;28;20509;-83
2023/06/09 03:30:11;;;;;;;24.37;19.77;;;16.70;1.00;;;;;;5050325;28;20181;-83
2023/06/09 03:32:37;;;;;;;24.73;19.43;;;16.70;1.00;;;;;;5051330;28;20606;-83
2023/06/09 03:35:04;;;;;;;25.43;19.47;;;16.70;1.00;;;;;;5051468;28;20471;-83
2023/06/09 03:37:29;;;;;;;23.73;19.97;;;16.70;1.00;;;;;;5050966;28;20212;-83
2023/06/09 03:39:55;;;;;;;30.00;19.93;;;16.70;1.00;;;;;;5052321;28;20438;-81
2023/06/09 03:42:20;;;;;;;26.27;18.80;;;16.70;1.00;;;;;;5052330;28;20713;-83
2023/06/09 03:44:46;;;;;;;24.30;19.87;;;16.70;1.00;;;;;;5051374;28;20182;-82
2023/06/09 03:47:11;;;;;;;23.83;19.00;;;16.70;1.00;;;;;;5058288;28;20240;-83
2023/06/09 03:49:37;;;;;;;20.53;17.97;;;16.70;1.00;;;;;;5043547;28;20189;-82
2023/06/09 03:52:06;;;;;;;26.50;19.47;;;16.70;1.00;;;;;;5048921;28;20182;-80
2023/06/09 03:54:31;;;;;;;21.60;18.33;;;16.80;1.00;;;;;;5039144;28;20246;-82
2023/06/09 03:56:57;;;;;;;23.10;17.60;;;16.80;1.00;;;;;;5050655;28;20457;-82
2023/06/09 03:59:22;;;;;;;23.07;19.00;;;16.80;1.00;;;;;;5040637;28;20247;-83
2023/06/09 04:01:48;;;;;;;23.20;19.10;;;16.80;1.00;;;;;;5066941;28;20281;-83
2023/06/09 04:04:14;;;;;;;27.37;18.70;;;16.90;1.00;;;;;;5068912;28;20183;-82
2023/06/09 04:06:45;;;;;;;25.70;19.80;;;16.90;1.00;;;;;;5051912;28;20455;-83
2023/06/09 04:09:12;;;;;;;26.07;17.97;;;16.90;1.00;;;;;;5057593;28;20203;-82
2023/06/09 04:11:38;;;;;;;25.10;20.20;;;17.00;1.00;;;;;;5056891;28;20432;-83
2023/06/09 04:14:04;;;;;;;24.63;18.00;;;17.00;99.90;;;;;;5056257;28;20432;-84
2023/06/09 04:16:29;;;;;;;25.13;19.40;;;17.00;99.90;;;;;;5049538;28;20501;-82
2023/06/09 04:18:55;;;;;;;24.03;18.70;;;17.10;99.90;;;;;;5054631;28;20222;-83
2023/06/09 04:21:20;;;;;;;22.73;18.57;;;17.10;99.90;;;;;;5039342;28;20214;-84
2023/06/09 04:23:46;;;;;;;25.93;17.60;;;17.20;99.90;;;;;;5051199;28;20692;-82
2023/06/09 04:26:13;;;;;;;20.70;17.90;;;17.30;99.90;;;;;;5054336;28;20179;-83
2023/06/09 04:28:39;;;;;;;22.40;19.40;;;17.30;99.90;;;;;;5049836;28;20235;-80
2023/06/09 04:31:08;;;;;;;23.30;20.73;;;17.30;99.90;;;;;;5055569;28;20446;-82
2023/06/09 04:33:36;;;;;;;31.53;20.10;;;17.40;99.90;;;;;;5045428;28;20451;-83
2023/06/09 04:36:03;;;;;;;22.23;19.37;;;17.40;99.90;;;;;;5041325;28;20545;-82
2023/06/09 04:38:35;;;;;;;23.60;20.43;;;17.50;99.90;;;;;;5043527;28;20462;-82
2023/06/09 04:41:03;;;;;;;24.07;19.27;;;17.60;99.90;;;;;;5051938;28;21033;-83
2023/06/09 04:43:29;;;;;;;25.03;20.33;;;17.70;99.00;;;;;;5046533;28;20426;-83
2023/06/09 04:45:56;;;;;;;25.20;19.57;;;17.70;38.60;;;;;;5048834;28;20434;-82
2023/06/09 04:48:21;;;;;;;29.20;20.40;;;17.80;1.00;;;;;;5069404;28;21056;-82
2023/06/09 04:50:47;;;;;;;25.73;21.00;;;17.90;1.00;;;;;;5049434;28;20482;-82
2023/06/09 04:53:15;;;;;;;26.07;19.40;;;17.90;1.00;;;;;;5054814;28;20530;-83
2023/06/09 04:55:41;;;;;;;25.43;18.13;;;18.00;1.00;;;;;;5051795;28;20538;-83
2023/06/09 04:58:07;;;;;;;23.83;18.50;;;18.10;99.90;;;;;;5051904;28;20533;-84
2023/06/09 05:00:33;;;;;;;31.00;19.27;;;18.20;72.60;;;;;;5049566;28;20530;-83
2023/06/09 05:03:02;;;;;;;22.30;18.93;;;18.30;1.00;;;;;;5054367;28;20474;-83
2023/06/09 05:05:28;;;;;;;28.43;18.60;;;18.40;1.00;;;;;;5052037;28;20189;-82
2023/06/09 05:07:53;;;;;;;29.63;19.73;;;18.50;99.90;;;;;;5056980;28;20490;-83
2023/06/09 05:10:20;;;;;;;23.30;18.50;;;18.60;99.90;;;;;;5054135;28;20185;-82
2023/06/09 05:12:45;;;;;;;27.43;20.23;;;18.70;1.00;;;;;;5049114;28;20182;-83
2023/06/09 05:15:11;;;;;;;27.73;18.20;;;18.80;1.00;;;;;;5052879;28;20451;-83
2023/06/09 05:17:37;;;;;;;23.33;18.30;;;18.90;1.00;;;;;;5054808;28;20566;-83
2023/06/09 05:20:05;;;;;;;29.13;19.40;;;19.00;1.00;;;;;;5054969;28;20194;-83
2023/06/09 05:22:32;;;;;;;30.73;19.23;;;19.10;99.90;;;;;;5053560;28;20488;-83
2023/06/09 05:24:57;;;;;;;25.40;18.30;;;19.20;99.90;;;;;;5073056;28;20428;-80
2023/06/09 05:27:23;;;;;;;22.93;18.43;;;19.40;99.90;;;;;;5058895;28;20460;-80
2023/06/09 05:29:48;;;;;;;23.50;19.97;;;19.50;99.90;;;;;;5065830;28;20189;-81
2023/06/09 05:32:14;;;;;;;23.00;17.60;;;19.60;99.90;;;;;;5063946;28;20197;-81
2023/06/09 05:34:39;;;;;;;25.03;19.90;;;19.70;99.90;;;;;;5061122;28;20188;-83
2023/06/09 05:37:06;;;;;;;24.30;19.17;;;19.80;1.00;;;;;;5055579;28;20223;-83
2023/06/09 05:39:31;;;;;;;24.13;18.77;;;19.90;1.00;;;;;;5048772;28;20553;-83
2023/06/09 05:41:57;;;;;;;23.90;18.60;;;20.00;1.00;;;;;;5055132;28;20466;-83
2023/06/09 05:44:22;;;;;;;30.90;18.00;;;20.10;99.90;;;;;;5047145;28;20241;-82
2023/06/09 05:46:48;;;;;;;21.47;16.70;;;20.20;99.90;;;;;;5053576;28;20193;-80
2023/06/09 05:49:13;;;;;;;22.37;16.63;;;20.40;99.90;;;;;;5050187;28;20597;-81
2023/06/09 05:51:39;;;;;;;24.33;17.77;;;20.50;1.00;;;;;;5054187;28;20201;-82
2023/06/09 05:54:06;;;;;;;34.83;18.60;;;20.60;99.90;;;;;;5067814;28;20185;-83
2023/06/09 05:56:32;;;;;;;31.40;18.27;;;20.70;1.00;;;;;;5052111;28;20261;-83
2023/06/09 05:59:01;;;;;;;32.50;17.90;;;20.80;99.90;;;;;;5054944;28;20469;-84
2023/06/09 06:01:27;;;;;;;28.27;16.93;;;20.80;76.70;;;;;;5054528;28;20470;-82
2023/06/09 06:03:53;;;;;;;27.07;15.90;;;21.00;1.00;;;;;;5050595;28;20792;-83
2023/06/09 06:06:19;;;;;;;27.93;14.67;;;21.30;1.00;;;;;;5051252;28;20568;-83
2023/06/09 06:08:44;;;;;;;19.40;15.33;;;21.70;1.00;;;;;;5052064;28;20546;-85
2023/06/09 06:11:10;;;;;;;14.17;11.90;;;22.70;99.90;;;;;;5053209;28;20221;-83
2023/06/09 06:13:35;;;;;;;14.50;13.00;;;24.60;1.00;;;;;;5054149;28;20541;-84
2023/06/09 06:16:01;;;;;;;19.37;13.07;;;27.90;99.90;;;;;;5054244;28;20190;-84
2023/06/09 06:18:26;;;;;;;21.50;13.33;;;31.00;99.90;;;;;;5056303;28;20224;-84
2023/06/09 06:20:52;;;;;;;17.47;13.77;;;33.50;99.90;;;;;;5045361;28;20626;-84
2023/06/09 06:23:18;;;;;;;12.40;11.10;;;35.70;99.90;;;;;;5042295;28;20681;-84
2023/06/09 06:25:43;;;;;;;20.27;11.83;;;37.40;99.90;;;;;;5053043;28;20217;-82
2023/06/09 06:28:13;;;;;;;17.20;11.33;;;38.80;99.90;;;;;;5050299;28;20209;-85
2023/06/09 06:30:39;;;;;;;18.80;10.90;;;39.70;99.90;;;;;;5048861;28;20663;-85
2023/06/09 06:33:04;;;;;;;17.40;11.40;;;41.10;99.90;;;;;;5044907;28;20445;-84
2023/06/09 06:35:30;;;;;;;15.77;11.07;;;42.40;99.90;;;;;;5044239;28;20199;-86
2023/06/09 06:37:57;;;;;;;16.20;10.67;;;43.20;99.90;;;;;;5051196;28;20205;-85
2023/06/09 06:40:23;;;;;;;11.77;8.83;;;43.90;99.90;;;;;;5062480;28;20193;-84
2023/06/09 06:42:49;;;;;;;19.50;10.80;;;44.40;99.90;;;;;;5049086;28;20444;-86
2023/06/09 06:45:16;;;;;;;12.73;10.00;;;45.10;99.90;;;;;;5071635;28;20447;-85
2023/06/09 06:47:52;;;;;;;15.53;9.33;;;45.60;94.70;;;;;;5058632;28;20456;-84
2023/06/09 06:50:17;;;;;;;19.03;9.50;;;46.30;90.20;;;;;;5056557;28;20488;-86
2023/06/09 06:52:43;;;;;;;10.30;7.23;;;46.80;78.00;;;;;;5060192;28;20890;-85
2023/06/09 06:55:08;;;;;;;14.37;7.70;;;47.50;68.10;;;;;;5057266;28;20177;-84
2023/06/09 06:57:35;;;;;;;11.07;7.90;;;48.40;60.10;;;;;;5047419;28;20291;-84
2023/06/09 07:00:05;;;;;;;9.90;7.57;;;49.10;54.80;;;;;;5056205;28;20184;-84
2023/06/09 07:02:31;;;;;;;7.27;6.60;;;50.00;48.80;;;;;;5058300;28;20423;-84
2023/06/09 07:04:59;;;;;;;10.97;7.50;;;50.30;42.00;;;;;;5065620;28;20485;-84
2023/06/09 07:07:26;;;;;;;10.83;7.00;;;50.90;37.60;;;;;;5041832;28;20204;-84
2023/06/09 07:09:51;;;;;;;12.77;7.50;;;51.50;33.70;;;;;;5064945;28;20169;-84
2023/06/09 07:12:28;;;;;;;11.13;7.10;;;52.00;29.70;;;;;;5047718;28;20615;-84
2023/06/09 07:14:56;;;;;;;11.35;7.30;;;52.90;28.40;;;;;;5045996;28;20630;-86
2023/06/09 07:17:22;;;;;;;12.93;7.47;;;53.70;25.70;;;;;;5052504;28;20259;-85
2023/06/09 07:19:47;;;;;;;8.80;7.10;;;54.00;23.40;;;;;;5040106;28;20186;-83
2023/06/09 07:22:13;;;;;;;11.25;6.97;;;54.40;21.00;;;;;;5047835;28;20690;-84
2023/06/09 07:24:38;;;;;;;14.23;6.90;;;54.70;19.20;;;;;;5046117;28;20275;-85
2023/06/09 07:27:05;;;;;;;10.07;6.72;;;55.00;17.80;;;;;;5041655;28;20304;-82
2023/06/09 07:29:31;;;;;;;13.05;5.72;;;55.40;16.30;;;;;;5043744;28;20689;-83
2023/06/09 07:31:56;;;;;;;11.30;6.60;;;54.90;13.30;;;;;;5047997;28;20189;-83
2023/06/09 07:34:26;;;;;;;5.63;5.10;;;54.10;10.50;;;;;;5051712;28;20264;-82
2023/06/09 07:36:53;;;;;;;11.03;5.93;;;53.30;8.00;;;;;;5056897;28;20188;-82
2023/06/09 07:39:19;;;;;;;6.87;6.17;;;51.80;3.80;;;;;;5055301;28;20181;-82
2023/06/09 07:41:45;;;;;;;9.20;5.90;;;51.40;3.20;;;;;;5052172;28;20255;-82
2023/06/09 07:44:11;;;;;;;10.57;6.60;;;50.90;2.70;;;;;;5058007;28;20427;-84
2023/06/09 07:46:36;;;;;;;9.87;6.80;;;50.50;1.80;;;;;;5057014;28;20169;-84
2023/06/09 07:49:02;;;;;;;11.13;6.27;;;50.40;1.90;;;;;;5048746;28;20209;-83
2023/06/09 07:51:29;;;;;;;16.03;6.10;;;50.40;2.10;;;;;;5051773;28;20243;-84
2023/06/09 07:53:54;;;;;;;6.83;5.80;;;50.20;1.60;;;;;;5041709;28;20495;-84
2023/06/09 07:56:20;;;;;;;8.13;5.43;;;50.50;2.20;;;;;;5047202;28;20459;-84
2023/06/09 07:58:46;;;;;;;8.37;5.80;;;50.60;1.90;;;;;;5044278;28;20204;-84
2023/06/09 08:01:12;;;;;;;5.90;5.30;;;51.00;1.90;;;;;;5050919;28;20658;-84
2023/06/09 08:03:37;;;;;;;9.27;6.40;;;50.80;1.00;;;;;;5052305;28;20193;-84
2023/06/09 08:06:04;;;;;;;11.53;5.53;;;50.00;1.00;;;;;;5058845;28;20195;-83
2023/06/09 08:08:31;;;;;;;5.97;5.33;;;49.50;1.00;;;;;;5056343;28;20207;-84
2023/06/09 08:10:57;;;;;;;10.07;4.80;;;49.20;1.00;;;;;;5051466;28;20416;-83
2023/06/09 08:13:23;;;;;;;5.60;5.10;;;49.30;1.00;;;;;;5057865;28;20423;-84
2023/06/09 08:15:48;;;;;;;7.97;5.47;;;49.30;1.00;;;;;;5041187;28;20443;-83
2023/06/09 08:18:14;;;;;;;6.40;5.80;;;49.00;1.00;;;;;;5046003;28;20217;-86
2023/06/09 08:20:40;;;;;;;8.30;5.57;;;48.80;1.00;;;;;;5047752;28;20240;-84
2023/06/09 08:23:07;;;;;;;6.70;5.10;;;49.10;1.00;;;;;;5059227;28;20177;-86
2023/06/09 08:25:34;;;;;;;6.83;5.40;;;49.50;1.00;;;;;;5062247;28;20273;-84
2023/06/09 08:28:00;;;;;;;7.90;5.83;;;49.60;1.00;;;;;;5061480;28;20431;-83
2023/06/09 08:30:26;;;;;;;7.17;5.20;;;49.80;1.00;;;;;;5060162;28;20423;-84
2023/06/09 08:32:51;;;;;;;6.47;5.77;;;49.50;1.00;;;;;;5060042;28;20197;-84
2023/06/09 08:35:17;;;;;;;9.13;5.77;;;49.60;1.00;;;;;;5063925;28;21098;-84
2023/06/09 08:37:44;;;;;;;6.63;5.20;;;49.50;1.00;;;;;;5058226;28;20217;-85
2023/06/09 08:40:09;;;;;;;10.87;5.97;;;49.60;1.00;;;;;;5059491;28;20209;-85
2023/06/09 08:42:36;;;;;;;6.87;5.40;;;49.80;1.00;;;;;;5068366;28;20470;-86
2023/06/09 08:45:04;;;;;;;8.47;5.73;;;49.50;1.00;;;;;;5059284;28;20218;-83
2023/06/09 08:47:32;;;;;;;5.53;5.03;;;49.40;1.00;;;;;;5054567;28;20478;-83
2023/06/09 08:49:59;;;;;;;6.90;5.97;;;49.50;1.00;;;;;;5046074;28;21776;-84
2023/06/09 08:52:25;;;;;;;6.63;5.97;;;50.00;1.00;;;;;;5050738;28;20439;-83
2023/06/09 08:54:52;;;;;;;6.40;5.83;;;49.90;1.00;;;;;;5047515;28;20448;-83
2023/06/09 08:57:18;;;;;;;7.03;6.33;;;49.60;1.00;;;;;;5040786;28;21203;-85
2023/06/09 08:59:47;;;;;;;6.77;6.17;;;49.50;1.00;;;;;;5052270;28;20431;-84
2023/06/09 09:02:13;;;;;;;5.97;5.50;;;49.00;1.00;;;;;;5051949;28;20504;-83
2023/06/09 09:04:39;;;;;;;5.50;4.87;;;48.50;1.00;;;;;;5041148;28;20805;-83
2023/06/09 09:07:08;;;;;;;9.53;5.47;;;48.60;1.00;;;;;;5048214;28;20877;-83
2023/06/09 09:09:34;;;;;;;5.77;5.17;;;48.30;1.00;;;;;;5047831;28;20241;-83
2023/06/09 09:12:01;;;;;;;5.83;5.33;;;47.90;2.90;;;;;;5048880;28;20903;-83
2023/06/09 09:14:27;;;;;;;5.40;4.87;;;47.90;1.00;;;;;;5048884;28;20181;-84
2023/06/09 09:16:52;;;;;;;5.97;5.57;;;48.10;1.00;;;;;;5053330;28;20441;-83
2023/06/09 09:19:29;;;;;;;5.77;4.97;;;47.90;1.00;;;;;;5052616;28;20224;-84
2023/06/09 09:22:05;;;;;;;8.63;4.63;;;48.00;1.00;;;;;;5068200;28;20224;-83
2023/06/09 09:24:31;;;;;;;8.03;4.30;;;47.80;1.00;;;;;;5046950;28;20446;-83
2023/06/09 09:26:57;;;;;;;5.13;4.73;;;47.80;1.00;;;;;;5039580;28;20740;-83
2023/06/09 09:29:26;;;;;;;5.70;5.13;;;47.80;1.00;;;;;;5038771;28;20186;-83
2023/06/09 09:31:57;;;;;;;6.07;5.27;;;47.60;1.00;;;;;;5052112;28;20204;-84
2023/06/09 09:34:25;;;;;;;7.47;5.60;;;47.20;1.00;;;;;;5048422;28;20452;-83
2023/06/09 09:36:54;;;;;;;9.33;5.03;;;47.00;1.00;;;;;;5050322;28;20451;-83
2023/06/09 09:39:20;;;;;;;5.13;4.60;;;47.10;1.00;;;;;;5047205;28;20436;-83
2023/06/09 09:42:07;;;;;;;4.83;4.33;;;47.20;1.00;;;;;;5039365;28;20464;-85
2023/06/09 09:44:44;;;;;;;5.30;4.90;;;47.30;1.00;;;;;;5044831;28;20440;-83
2023/06/09 09:47:12;;;;;;;4.73;4.33;;;46.60;1.00;;;;;;5051788;28;20511;-84
2023/06/09 09:49:53;;;;;;;5.67;4.60;;;46.00;1.00;;;;;;5050760;28;20435;-84
2023/06/09 09:52:37;;;;;;;5.00;4.50;;;45.60;1.00;;;;;;5046954;28;20917;-84
2023/06/09 09:55:08;;;;;;;4.93;4.10;;;45.80;1.00;;;;;;5061627;28;21008;-86
2023/06/09 09:57:35;;;;;;;5.60;5.00;;;45.60;1.00;;;;;;5065734;28;20460;-83
2023/06/09 10:00:05;;;;;;;6.13;4.13;;;45.70;1.00;;;;;;5063619;28;20451;-82
2023/06/09 10:02:34;;;;;;;8.83;5.00;;;45.30;1.00;;;;;;5060366;28;20479;-85
2023/06/09 10:05:03;;;;;;;7.90;5.27;;;44.50;1.00;;;;;;5049688;28;20448;-84
2023/06/09 10:07:33;;;;;;;7.77;5.63;;;44.40;1.00;;;;;;5049838;28;20514;-82
2023/06/09 10:09:59;;;;;;;7.63;5.07;;;44.60;1.00;;;;;;5047780;28;20429;-83
2023/06/09 10:12:25;;;;;;;10.27;5.10;;;44.80;1.00;;;;;;5040345;28;20437;-84
2023/06/09 10:14:53;;;;;;;7.67;5.10;;;44.60;1.00;;;;;;5043499;28;20335;-83
2023/06/09 10:17:22;;;;;;;8.50;5.17;;;44.30;1.00;;;;;;5056251;28;20456;-83
2023/06/09 10:19:52;;;;;;;6.27;4.77;;;44.30;1.00;;;;;;5055787;28;20956;-84
2023/06/09 10:22:19;;;;;;;5.93;5.00;;;44.00;1.00;;;;;;5051528;28;20470;-83
2023/06/09 10:24:46;;;;;;;5.83;4.90;;;43.60;1.00;;;;;;5048793;28;20439;-85
2023/06/09 10:27:13;;;;;;;10.87;4.83;;;43.40;1.00;;;;;;5046757;28;20524;-83
2023/06/09 10:29:39;;;;;;;6.10;5.60;;;43.10;1.00;;;;;;5055651;28;20439;-83
2023/06/09 10:32:06;;;;;;;5.10;4.70;;;42.80;1.00;;;;;;5057599;28;20463;-85
2023/06/09 10:34:34;;;;;;;6.60;4.97;;;42.80;1.00;;;;;;5053652;28;20189;-84
2023/06/09 10:37:00;;;;;;;8.60;4.80;;;42.80;1.00;;;;;;5053118;28;20444;-84
2023/06/09 10:39:51;;;;;;;6.00;4.67;;;42.60;1.00;;;;;;5041580;28;20444;-83
2023/06/09 10:42:51;;;;;;;6.80;5.13;;;42.40;1.00;;;;;;5048717;28;20472;-85
2023/06/09 10:45:20;;;;;;;5.30;4.73;;;42.50;1.00;;;;;;5040666;28;20435;-84
2023/06/09 10:47:49;;;;;;;5.27;4.77;;;42.40;1.00;;;;;;5048187;28;20503;-87
2023/06/09 10:50:26;;;;;;;6.73;4.80;;;42.40;1.00;;;;;;5040569;28;20958;-84
2023/06/09 10:52:59;;;;;;;4.70;4.20;;;42.10;1.00;;;;;;5040517;28;20538;-83
2023/06/09 10:55:30;;;;;;;4.83;4.30;;;42.20;1.00;;;;;;5048169;28;20444;-83
2023/06/09 10:57:57;;;;;;;5.10;4.60;;;42.20;1.00;;;;;;5056877;28;20451;-83
2023/06/09 11:00:25;;;;;;;9.40;4.43;;;42.20;1.00;;;;;;5056948;28;20466;-83
2023/06/09 11:03:12;;;;;;;5.40;4.90;;;42.30;1.00;;;;;;5056443;28;20519;-84
2023/06/09 11:05:42;;;;;;;9.00;5.30;;;42.50;1.00;;;;;;5030594;28;20739;-84
2023/06/09 11:08:08;;;;;;;4.87;4.43;;;42.20;1.00;;;;;;5043837;28;21105;-84
2023/06/09 11:10:35;;;;;;;6.37;4.73;;;42.20;1.00;;;;;;5057023;28;20440;-84
2023/06/09 11:13:03;;;;;;;6.97;4.80;;;42.20;5.70;;;;;;5055539;28;20205;-85
2023/06/09 11:15:57;;;;;;;5.20;4.67;;;42.10;1.00;;;;;;5060705;28;21002;-83
2023/06/09 11:18:23;;;;;;;5.10;4.60;;;41.80;1.00;;;;;;5047113;28;20464;-83
2023/06/09 11:21:10;;;;;;;6.20;4.67;;;41.60;1.00;;;;;;5049182;28;20440;-84
2023/06/09 11:23:56;;;;;;;5.83;4.50;;;41.60;1.00;;;;;;5050391;28;20178;-84
2023/06/09 11:26:25;;;;;;;8.33;4.53;;;41.40;1.00;;;;;;5043751;28;20432;-84
2023/06/09 11:28:53;;;;;;;6.60;4.83;;;41.20;1.00;;;;;;5054417;28;20463;-84
2023/06/09 11:31:19;;;;;;;7.20;4.77;;;41.00;1.00;;;;;;5046589;28;20444;-84
2023/06/09 11:33:50;;;;;;;7.73;4.97;;;40.90;1.00;;;;;;5052402;28;20490;-84
2023/06/09 11:36:18;;;;;;;4.50;4.10;;;41.00;1.00;;;;;;5053287;28;20438;-84
2023/06/09 11:38:45;;;;;;;4.30;3.90;;;40.90;1.00;;;;;;5055197;28;20507;-83
2023/06/09 11:41:13;;;;;;;8.60;4.93;;;40.90;1.00;;;;;;5049996;28;20464;-85
2023/06/09 11:43:38;;;;;;;5.93;5.00;;;40.70;1.00;;;;;;5055431;28;20432;-85
2023/06/09 11:46:04;;;;;;;8.20;4.93;;;40.20;1.00;;;;;;5050724;28;21165;-84
2023/06/09 11:48:30;;;;;;;6.47;5.33;;;40.00;1.00;;;;;;5046984;28;20220;-84
2023/06/09 11:50:55;;;;;;;4.87;4.37;;;39.70;1.00;;;;;;5056063;28;20185;-84
2023/06/09 11:53:23;;;;;;;5.00;4.57;;;39.90;1.00;;;;;;5057202;28;20440;-85
2023/06/09 11:56:06;;;;;;;5.50;4.30;;;40.00;1.00;;;;;;5049969;28;20183;-84
2023/06/09 11:58:31;;;;;;;5.63;4.13;;;40.20;1.00;;;;;;5050148;28;20483;-84
2023/06/09 12:00:57;;;;;;;6.70;4.23;;;40.30;1.00;;;;;;5062690;28;20463;-84
2023/06/09 12:03:23;;;;;;;4.40;4.00;;;40.40;1.00;;;;;;5061116;28;20178;-84
2023/06/09 12:05:52;;;;;;;6.47;4.67;;;40.30;1.00;;;;;;5048265;28;20476;-83
2023/06/09 12:08:18;;;;;;;4.17;3.77;;;39.90;1.00;;;;;;5051382;28;20245;-85
2023/06/09 12:10:44;;;;;;;8.40;4.20;;;39.70;1.00;;;;;;5048604;28;20434;-83
2023/06/09 12:13:09;;;;;;;8.07;4.20;;;39.90;1.00;;;;;;5049169;28;20186;-84
2023/06/09 12:15:35;;;;;;;10.23;4.33;;;40.00;1.00;;;;;;5044462;28;20182;-83
2023/06/09 12:18:01;;;;;;;5.10;4.63;;;40.00;1.00;;;;;;5067010;28;20209;-84
2023/06/09 12:20:28;;;;;;;4.57;4.20;;;39.60;1.00;;;;;;5058283;28;20847;-84
2023/06/09 12:23:14;;;;;;;5.10;4.60;;;39.20;1.00;;;;;;5049661;28;20468;-82
2023/06/09 12:25:42;;;;;;;5.17;4.30;;;38.90;1.00;;;;;;5054919;28;20436;-84
2023/06/09 12:28:23;;;;;;;4.53;4.03;;;38.70;1.00;;;;;;5058350;28;21000;-84
2023/06/09 12:30:50;;;;;;;5.40;4.17;;;38.30;1.00;;;;;;5054375;28;20546;-84
2023/06/09 12:33:26;;;;;;;7.83;3.70;;;38.30;1.00;;;;;;5064950;28;20440;-84
2023/06/09 12:35:54;;;;;;;6.30;4.00;;;38.30;1.00;;;;;;5053609;28;20524;-83
2023/06/09 12:38:22;;;;;;;4.30;3.90;;;38.00;1.00;;;;;;5047255;28;20439;-84
2023/06/09 12:40:49;;;;;;;5.93;4.60;;;37.90;1.00;;;;;;5051355;28;21022;-85
2023/06/09 12:43:19;;;;;;;4.80;3.70;;;38.00;1.00;;;;;;5050096;28;20431;-84
2023/06/09 12:45:47;;;;;;;4.63;3.83;;;37.80;1.00;;;;;;5052468;28;20505;-81